Time;durP1;ratioP1;P1;durP2;ratioP2;P2;SDS_P1;SDS_P2;PMS_P1;PMS_P2;Temp;Humidity;BMP_temperature;BMP_pressure;BME280_temperature;BME280_humidity;BME280_pressure;Samples;Min_cycle;Max_cycle;Signal;HPM_P1;HPM_P2
2022/07/04 00:00:01;;;;;;;8.98;5.32;;;13.60;99.90;;;;;;5034155;28;20056;-84
2022/07/04 00:02:26;;;;;;;7.75;4.90;;;13.60;99.90;;;;;;5033345;28;20045;-85
2022/07/04 00:04:52;;;;;;;8.27;5.03;;;13.50;99.90;;;;;;5033715;28;20047;-85
2022/07/04 00:07:17;;;;;;;4.78;4.38;;;13.50;99.90;;;;;;5033633;28;20049;-85
2022/07/04 00:09:43;;;;;;;5.88;4.63;;;13.40;99.90;;;;;;5033597;28;20047;-85
2022/07/04 00:12:09;;;;;;;8.45;4.60;;;13.40;99.90;;;;;;5051590;28;20041;-86
2022/07/04 00:14:34;;;;;;;8.05;5.10;;;13.40;99.90;;;;;;5033048;28;20041;-86
2022/07/04 00:17:00;;;;;;;5.55;4.95;;;13.40;99.90;;;;;;5051382;28;20049;-85
2022/07/04 00:19:26;;;;;;;6.10;4.60;;;13.30;99.90;;;;;;5051387;28;20060;-85
2022/07/04 00:21:51;;;;;;;7.47;4.90;;;13.30;99.90;;;;;;5033855;28;20049;-85
2022/07/04 00:24:17;;;;;;;6.32;4.50;;;13.30;99.90;;;;;;5050592;28;20052;-85
2022/07/04 00:26:43;;;;;;;7.53;4.82;;;13.20;99.90;;;;;;5051317;28;20051;-85
2022/07/04 00:29:08;;;;;;;4.60;4.20;;;13.20;99.90;;;;;;5050364;28;20128;-85
2022/07/04 00:31:34;;;;;;;4.88;4.38;;;13.10;99.90;;;;;;5050353;28;20543;-85
2022/07/04 00:34:00;;;;;;;7.20;4.80;;;13.10;99.90;;;;;;5051218;28;20052;-86
2022/07/04 00:36:25;;;;;;;5.10;4.45;;;13.10;99.90;;;;;;5050664;28;20055;-85
2022/07/04 00:38:51;;;;;;;7.95;4.60;;;13.10;99.90;;;;;;5050984;28;20049;-85
2022/07/04 00:41:16;;;;;;;9.25;5.10;;;13.10;99.90;;;;;;5051249;28;20049;-85
2022/07/04 00:43:42;;;;;;;6.72;5.15;;;13.00;99.90;;;;;;5050532;28;20139;-85
2022/07/04 00:46:08;;;;;;;9.00;5.15;;;13.00;99.90;;;;;;5051092;28;20095;-85
2022/07/04 00:48:33;;;;;;;6.97;4.97;;;13.00;99.90;;;;;;5032963;28;20124;-85
2022/07/04 00:50:59;;;;;;;6.93;4.75;;;13.00;99.90;;;;;;5016637;28;20049;-85
2022/07/04 00:53:25;;;;;;;7.35;5.25;;;13.00;99.90;;;;;;5050373;28;20497;-85
2022/07/04 00:55:51;;;;;;;7.07;4.80;;;13.00;99.90;;;;;;5032844;28;20120;-85
2022/07/04 00:58:19;;;;;;;8.30;5.65;;;13.00;99.90;;;;;;5033012;28;20041;-84
2022/07/04 01:00:45;;;;;;;9.25;5.63;;;12.90;99.90;;;;;;5016335;28;20049;-86
2022/07/04 01:03:10;;;;;;;7.50;5.50;;;12.90;99.90;;;;;;5050753;28;20051;-85
2022/07/04 01:05:37;;;;;;;8.77;5.70;;;12.90;99.90;;;;;;5032258;28;20044;-85
2022/07/04 01:08:03;;;;;;;7.47;5.88;;;12.90;99.90;;;;;;5032949;28;20055;-85
2022/07/04 01:10:28;;;;;;;6.82;5.47;;;12.90;99.90;;;;;;5016006;28;20403;-86
2022/07/04 01:12:54;;;;;;;6.32;5.72;;;12.90;99.90;;;;;;5050575;28;20041;-85
2022/07/04 01:15:20;;;;;;;7.50;6.05;;;12.90;99.90;;;;;;5032811;28;20072;-86
2022/07/04 01:17:46;;;;;;;7.15;6.45;;;12.80;99.90;;;;;;5032646;28;20145;-86
2022/07/04 01:20:15;;;;;;;8.88;5.90;;;12.90;99.90;;;;;;5032622;28;20045;-86
2022/07/04 01:22:41;;;;;;;8.55;7.00;;;12.80;99.90;;;;;;5032363;28;20059;-85
2022/07/04 01:25:08;;;;;;;7.55;5.88;;;12.80;99.90;;;;;;5016347;28;20477;-86
2022/07/04 01:27:33;;;;;;;10.63;6.25;;;12.70;99.90;;;;;;5050074;28;20053;-86
2022/07/04 01:29:59;;;;;;;7.45;6.07;;;12.70;99.90;;;;;;5032617;28;20056;-84
2022/07/04 01:32:25;;;;;;;8.55;5.90;;;12.70;99.90;;;;;;5050104;28;20151;-86
2022/07/04 01:34:50;;;;;;;8.38;5.75;;;12.70;99.90;;;;;;5050467;28;20067;-86
2022/07/04 01:37:16;;;;;;;6.63;5.90;;;12.60;99.90;;;;;;5050398;28;20071;-86
2022/07/04 01:39:42;;;;;;;6.50;5.80;;;12.60;99.90;;;;;;5032393;28;20080;-86
2022/07/04 01:42:08;;;;;;;8.07;6.38;;;12.60;99.90;;;;;;5052977;28;20045;-86
2022/07/04 01:44:33;;;;;;;6.45;5.88;;;12.50;99.90;;;;;;5035920;28;20045;-86
2022/07/04 01:46:59;;;;;;;6.53;5.40;;;12.60;99.90;;;;;;5036314;28;20447;-86
2022/07/04 01:49:25;;;;;;;8.35;5.72;;;12.60;99.90;;;;;;5003732;28;20412;-86
2022/07/04 01:51:50;;;;;;;6.90;6.07;;;12.50;99.90;;;;;;5053450;28;20049;-86
2022/07/04 01:54:16;;;;;;;7.85;6.15;;;12.40;99.90;;;;;;5036338;28;20049;-84
2022/07/04 01:56:42;;;;;;;7.32;6.60;;;12.40;99.90;;;;;;5053584;28;20040;-86
2022/07/04 01:59:08;;;;;;;10.90;6.75;;;12.50;99.90;;;;;;5036208;28;20373;-85
2022/07/04 02:01:34;;;;;;;9.75;7.63;;;12.40;99.90;;;;;;5035519;28;20542;-85
2022/07/04 02:04:00;;;;;;;9.38;6.70;;;12.40;99.90;;;;;;5053846;28;20041;-85
2022/07/04 02:06:26;;;;;;;10.23;8.18;;;12.40;99.90;;;;;;5036349;28;20060;-85
2022/07/04 02:14:22;;;;;;;10.25;7.25;;;12.40;99.90;;;;;;4995654;28;20360;-86
2022/07/04 02:16:48;;;;;;;9.40;7.90;;;12.30;99.90;;;;;;5053052;28;20095;-86
2022/07/04 02:19:13;;;;;;;10.77;8.75;;;12.30;99.90;;;;;;5036048;28;20131;-85
2022/07/04 02:21:39;;;;;;;11.85;8.93;;;12.30;99.90;;;;;;5053324;28;20060;-85
2022/07/04 02:24:05;;;;;;;13.80;9.30;;;12.30;99.90;;;;;;5053382;28;20080;-86
2022/07/04 02:26:30;;;;;;;12.05;9.63;;;12.30;99.90;;;;;;5035785;28;20110;-86
2022/07/04 02:28:56;;;;;;;13.30;9.60;;;12.30;99.90;;;;;;5052697;28;20059;-85
2022/07/04 02:31:22;;;;;;;16.15;10.63;;;12.30;99.90;;;;;;5035281;28;20496;-85
2022/07/04 02:33:47;;;;;;;18.60;10.82;;;12.30;99.90;;;;;;5053169;28;20053;-85
2022/07/04 02:36:13;;;;;;;11.98;10.32;;;12.30;99.90;;;;;;5035438;28;20437;-86
2022/07/04 02:38:39;;;;;;;12.10;9.23;;;12.30;99.90;;;;;;5052784;28;20053;-85
2022/07/04 02:41:04;;;;;;;13.55;10.18;;;12.30;99.90;;;;;;5019189;28;20389;-85
2022/07/04 02:43:30;;;;;;;15.95;10.35;;;12.30;99.90;;;;;;5052883;28;20481;-85
2022/07/04 02:45:55;;;;;;;16.10;9.77;;;12.30;99.90;;;;;;5052919;28;20099;-85
2022/07/04 02:48:21;;;;;;;11.20;9.45;;;12.20;99.90;;;;;;5035457;28;20052;-85
2022/07/04 02:50:47;;;;;;;13.50;10.43;;;12.30;99.90;;;;;;5052646;28;20051;-85
2022/07/04 02:53:12;;;;;;;12.43;11.13;;;12.20;99.90;;;;;;5052332;28;20040;-85
2022/07/04 02:55:38;;;;;;;16.00;11.85;;;12.20;99.90;;;;;;5034960;28;20080;-86
2022/07/04 02:58:04;;;;;;;15.18;11.60;;;12.20;99.90;;;;;;5052883;28;20067;-84
2022/07/04 03:00:29;;;;;;;13.88;11.45;;;12.10;99.90;;;;;;5035198;28;20136;-86
2022/07/04 03:02:55;;;;;;;14.48;11.88;;;12.10;99.90;;;;;;5034535;28;20045;-85
2022/07/04 03:05:20;;;;;;;15.70;11.50;;;12.10;99.90;;;;;;5052474;28;20040;-85
2022/07/04 03:07:46;;;;;;;16.17;12.07;;;12.10;99.90;;;;;;5034607;28;20049;-85
2022/07/04 03:10:12;;;;;;;14.98;12.57;;;12.10;99.90;;;;;;5052651;28;20080;-85
2022/07/04 03:12:37;;;;;;;14.70;12.43;;;12.10;99.90;;;;;;5034413;28;20127;-86
2022/07/04 03:15:03;;;;;;;20.10;12.68;;;12.10;99.90;;;;;;5034745;28;20048;-86
2022/07/04 03:17:30;;;;;;;17.70;13.07;;;12.10;99.90;;;;;;5034620;28;20041;-86
2022/07/04 03:19:56;;;;;;;15.60;11.98;;;12.10;99.90;;;;;;5034377;28;20088;-86
2022/07/04 03:22:22;;;;;;;20.27;13.13;;;12.10;99.90;;;;;;5052259;28;20515;-86
2022/07/04 03:24:48;;;;;;;18.65;12.48;;;12.10;99.90;;;;;;5052212;28;20045;-86
2022/07/04 03:27:13;;;;;;;15.18;11.82;;;12.10;99.90;;;;;;5052364;28;20045;-86
2022/07/04 03:29:39;;;;;;;16.08;12.82;;;12.20;99.90;;;;;;5034505;28;20469;-86
2022/07/04 03:32:05;;;;;;;14.82;12.73;;;12.10;99.90;;;;;;5035643;28;20061;-85
2022/07/04 03:34:31;;;;;;;17.63;12.13;;;12.20;99.90;;;;;;5050870;28;20052;-85
2022/07/04 03:36:56;;;;;;;16.48;13.65;;;12.20;99.90;;;;;;5051776;28;20053;-86
2022/07/04 03:39:22;;;;;;;19.00;13.75;;;12.20;99.90;;;;;;5050638;28;20048;-85
2022/07/04 03:41:48;;;;;;;17.65;14.10;;;12.20;99.90;;;;;;5051043;28;20045;-86
2022/07/04 03:44:14;;;;;;;19.10;13.82;;;12.20;99.90;;;;;;5051058;28;20472;-86
2022/07/04 03:46:39;;;;;;;17.60;13.70;;;12.30;99.90;;;;;;5019647;28;20047;-91
2022/07/04 03:49:05;;;;;;;16.20;13.13;;;12.40;99.90;;;;;;5050890;28;20397;-91
2022/07/04 03:51:31;;;;;;;17.95;13.15;;;12.50;99.90;;;;;;5052637;28;20055;-90
2022/07/04 03:53:56;;;;;;;15.13;11.93;;;12.70;99.90;;;;;;5051673;28;20052;-89
2022/07/04 03:56:22;;;;;;;17.90;12.27;;;12.90;99.90;;;;;;5062187;28;20044;-91
2022/07/04 03:58:50;;;;;;;14.38;10.95;;;13.00;99.90;;;;;;5060475;28;20045;-92
2022/07/04 04:01:17;;;;;;;17.25;11.52;;;13.10;99.90;;;;;;5053261;28;20044;-87
2022/07/04 04:06:27;;;;;;;;;;;13.20;99.90;;;;;;5052274;28;20044;-90
2022/07/04 04:08:52;;;;;;;13.45;10.27;;;13.20;99.90;;;;;;5036637;28;20323;-91
2022/07/04 04:11:18;;;;;;;15.52;11.55;;;13.20;99.90;;;;;;5054186;28;20494;-91
2022/07/04 04:13:45;;;;;;;17.25;11.80;;;13.30;99.90;;;;;;5052811;28;20075;-88
2022/07/04 04:16:10;;;;;;;15.05;11.13;;;13.30;99.90;;;;;;5052024;28;20052;-92
2022/07/04 04:18:36;;;;;;;15.75;11.52;;;13.30;99.90;;;;;;5053965;28;20052;-90
2022/07/04 04:21:03;;;;;;;13.48;11.55;;;13.30;99.90;;;;;;5051629;28;20103;-94
2022/07/04 04:23:28;;;;;;;15.00;11.55;;;13.30;99.90;;;;;;5058343;28;20044;-91
2022/07/04 04:25:54;;;;;;;13.23;11.82;;;13.30;99.90;;;;;;5048871;28;20076;-92
2022/07/04 04:28:20;;;;;;;15.05;11.40;;;13.40;99.90;;;;;;5065910;28;20186;-90
2022/07/04 04:30:45;;;;;;;16.48;11.38;;;13.30;99.90;;;;;;5069088;28;20477;-90
2022/07/04 04:33:11;;;;;;;14.43;11.10;;;13.40;99.90;;;;;;5052086;28;20049;-91
2022/07/04 04:35:37;;;;;;;13.63;11.52;;;13.40;99.90;;;;;;5061224;28;20059;-86
2022/07/04 04:38:02;;;;;;;12.85;10.82;;;13.50;99.90;;;;;;5049361;28;20054;-87
2022/07/04 04:40:28;;;;;;;13.02;11.15;;;13.70;99.90;;;;;;5050929;28;20067;-87
2022/07/04 04:42:54;;;;;;;11.68;10.48;;;13.80;99.90;;;;;;5049455;28;20049;-87
2022/07/04 04:45:19;;;;;;;12.18;9.13;;;14.50;99.90;;;;;;5050870;28;20145;-87
2022/07/04 04:47:45;;;;;;;10.40;8.65;;;15.20;99.90;;;;;;5049687;28;20184;-87
2022/07/04 04:50:12;;;;;;;9.07;8.15;;;16.20;99.90;;;;;;5050637;28;20084;-87
2022/07/04 04:52:58;;;;;;;8.52;7.75;;;17.00;99.90;;;;;;5033819;28;20067;-89
2022/07/04 04:55:24;;;;;;;7.97;7.18;;;17.60;99.90;;;;;;5050010;28;20056;-87
2022/07/04 04:57:49;;;;;;;10.60;7.10;;;18.10;99.90;;;;;;5050645;28;20485;-87
2022/07/04 05:00:15;;;;;;;9.63;6.55;;;17.80;99.90;;;;;;5051327;28;20075;-87
2022/07/04 05:02:41;;;;;;;8.77;6.50;;;18.70;99.90;;;;;;5049684;28;20106;-88
2022/07/04 05:05:07;;;;;;;8.20;6.32;;;18.90;99.90;;;;;;5048959;28;20037;-87
2022/07/04 05:07:33;;;;;;;7.68;5.88;;;19.30;99.90;;;;;;5032843;28;20061;-86
2022/07/04 05:09:59;;;;;;;9.48;5.82;;;19.60;99.90;;;;;;5050318;28;20057;-86
2022/07/04 05:12:25;;;;;;;9.35;5.82;;;19.70;99.90;;;;;;5050844;28;20052;-87
2022/07/04 05:14:52;;;;;;;8.85;5.63;;;19.30;99.90;;;;;;5049285;28;20076;-86
2022/07/04 05:17:18;;;;;;;6.72;5.47;;;18.90;99.90;;;;;;5052903;28;20053;-87
2022/07/04 05:19:43;;;;;;;10.98;5.47;;;19.20;99.90;;;;;;5054710;28;20100;-87
2022/07/04 05:22:10;;;;;;;9.90;6.18;;;19.50;99.90;;;;;;5053150;28;20049;-87
2022/07/04 05:24:39;;;;;;;8.43;6.45;;;19.90;99.90;;;;;;5054353;28;20045;-87
2022/07/04 05:27:05;;;;;;;7.95;5.90;;;20.20;99.90;;;;;;5054571;28;20143;-87
2022/07/04 05:29:31;;;;;;;9.23;6.32;;;20.30;99.90;;;;;;5053367;28;20049;-87
2022/07/04 05:31:57;;;;;;;8.60;6.65;;;20.80;99.90;;;;;;5054144;28;20057;-86
2022/07/04 05:34:22;;;;;;;7.93;6.20;;;21.10;99.90;;;;;;5036432;28;20094;-86
2022/07/04 05:36:48;;;;;;;8.30;6.80;;;21.00;99.90;;;;;;5054396;28;20088;-87
2022/07/04 05:39:13;;;;;;;9.07;6.35;;;21.00;99.90;;;;;;5036226;28;20068;-87
2022/07/04 05:41:39;;;;;;;8.35;6.75;;;21.00;99.90;;;;;;5054284;28;20052;-86
2022/07/04 05:44:05;;;;;;;11.13;7.15;;;21.50;99.90;;;;;;5035781;28;20049;-86
2022/07/04 05:46:30;;;;;;;9.60;7.28;;;21.30;99.90;;;;;;5036124;28;20045;-87
2022/07/04 05:48:56;;;;;;;8.15;6.70;;;21.60;99.90;;;;;;5053835;28;20041;-86
2022/07/04 05:51:22;;;;;;;8.32;6.78;;;21.70;99.90;;;;;;5036071;28;20045;-86
2022/07/04 05:53:47;;;;;;;8.00;6.40;;;21.80;99.90;;;;;;5053455;28;20045;-86
2022/07/04 05:56:13;;;;;;;12.63;6.88;;;21.90;99.90;;;;;;5053346;28;20049;-87
2022/07/04 05:58:39;;;;;;;6.43;5.82;;;22.30;99.90;;;;;;5054024;28;20088;-87
2022/07/04 06:01:05;;;;;;;8.90;6.20;;;21.70;99.90;;;;;;5053506;28;20048;-86
2022/07/04 06:03:30;;;;;;;7.28;5.68;;;22.00;99.90;;;;;;5053877;28;20481;-87
2022/07/04 06:05:56;;;;;;;7.63;5.30;;;22.20;99.90;;;;;;5053986;28;20098;-87
2022/07/04 06:08:22;;;;;;;10.45;5.85;;;22.30;99.90;;;;;;5035536;28;20045;-87
2022/07/04 06:10:47;;;;;;;5.85;4.85;;;23.10;99.90;;;;;;5053849;28;20052;-86
2022/07/04 06:13:13;;;;;;;7.07;4.90;;;22.70;99.90;;;;;;5053560;28;20056;-87
2022/07/04 06:15:39;;;;;;;4.85;4.28;;;23.20;99.90;;;;;;5053705;28;20095;-86
2022/07/04 06:18:04;;;;;;;8.30;4.75;;;23.80;99.90;;;;;;5036219;28;20202;-86
2022/07/04 06:20:30;;;;;;;5.55;4.32;;;23.90;99.90;;;;;;5054281;28;20045;-86
2022/07/04 06:22:56;;;;;;;6.82;4.82;;;23.70;99.90;;;;;;5053551;28;20447;-86
2022/07/04 06:25:22;;;;;;;5.80;3.85;;;23.50;99.90;;;;;;5035249;28;20542;-87
2022/07/04 06:27:48;;;;;;;8.25;3.90;;;23.70;99.90;;;;;;5053507;28;20045;-85
2022/07/04 06:30:14;;;;;;;7.53;3.83;;;23.60;99.90;;;;;;5018894;28;20134;-86
2022/07/04 06:32:42;;;;;;;5.68;3.63;;;23.60;99.90;;;;;;5041491;28;20092;-86
2022/07/04 06:37:52;;;;;;;5.95;3.47;;;21.80;99.90;;;;;;5053438;28;20099;-86
2022/07/04 06:40:18;;;;;;;6.88;3.75;;;21.80;99.90;;;;;;5052944;28;20084;-86
2022/07/04 06:42:43;;;;;;;4.97;3.30;;;22.30;99.90;;;;;;5053005;28;20053;-87
2022/07/04 06:45:09;;;;;;;4.13;3.40;;;22.80;99.90;;;;;;5052737;28;20099;-86
2022/07/04 06:47:35;;;;;;;7.55;3.47;;;23.30;99.90;;;;;;5035220;28;20455;-86
2022/07/04 06:50:01;;;;;;;5.45;3.72;;;23.60;99.90;;;;;;5053321;28;20049;-86
2022/07/04 06:52:27;;;;;;;5.93;3.20;;;24.00;99.90;;;;;;5034850;28;20049;-87
2022/07/04 06:54:53;;;;;;;6.32;2.80;;;24.20;99.90;;;;;;5052513;28;20060;-85
2022/07/04 06:57:18;;;;;;;4.68;3.50;;;24.10;99.90;;;;;;5069674;28;20056;-87
2022/07/04 06:59:44;;;;;;;6.85;3.25;;;24.20;99.90;;;;;;5038199;28;20049;-86
2022/07/04 07:02:09;;;;;;;4.10;3.05;;;24.90;99.90;;;;;;5054410;28;20049;-87
2022/07/04 07:04:35;;;;;;;6.55;3.25;;;24.70;99.90;;;;;;5073105;28;20044;-87
2022/07/04 07:07:01;;;;;;;6.68;3.20;;;24.90;99.90;;;;;;5054765;28;20044;-87
2022/07/04 07:09:26;;;;;;;5.43;3.25;;;24.60;99.90;;;;;;5072197;28;20301;-87
2022/07/04 07:11:52;;;;;;;4.40;3.28;;;24.40;99.90;;;;;;5072771;28;20067;-86
2022/07/04 07:14:18;;;;;;;6.75;3.38;;;24.70;99.90;;;;;;5072204;28;20047;-87
2022/07/04 07:16:43;;;;;;;7.82;3.03;;;24.80;99.90;;;;;;5072538;28;20162;-87
2022/07/04 07:19:09;;;;;;;6.07;2.97;;;25.10;99.90;;;;;;5072421;28;20044;-85
2022/07/04 07:21:34;;;;;;;8.27;3.17;;;24.60;99.90;;;;;;5054449;28;20392;-87
2022/07/04 07:24:00;;;;;;;7.72;2.90;;;24.00;99.90;;;;;;5072365;28;20094;-86
2022/07/04 07:26:26;;;;;;;7.03;3.33;;;24.50;99.90;;;;;;5072019;28;20044;-86
2022/07/04 07:28:51;;;;;;;8.88;4.57;;;25.00;99.90;;;;;;5064159;28;20068;-90
2022/07/04 07:31:17;;;;;;;7.35;3.05;;;25.10;99.90;;;;;;5052293;28;20040;-90
2022/07/04 07:33:43;;;;;;;6.93;3.55;;;24.50;99.90;;;;;;5032191;28;20049;-90
2022/07/04 07:36:08;;;;;;;8.95;3.40;;;24.80;99.90;;;;;;5061013;28;20041;-89
2022/07/04 07:38:34;;;;;;;6.55;3.00;;;24.00;99.90;;;;;;5049986;28;20482;-90
2022/07/04 07:41:00;;;;;;;4.57;2.80;;;24.40;99.90;;;;;;5053004;28;20144;-88
2022/07/04 07:43:26;;;;;;;6.97;3.13;;;24.00;99.90;;;;;;5052596;28;20041;-88
2022/07/04 07:45:51;;;;;;;7.80;3.30;;;23.70;99.90;;;;;;5036076;28;20129;-90
2022/07/04 07:48:17;;;;;;;10.85;3.70;;;23.70;99.90;;;;;;5069549;28;20362;-89
2022/07/04 07:50:43;;;;;;;7.40;3.28;;;23.30;99.90;;;;;;5052750;28;20416;-89
2022/07/04 07:53:08;;;;;;;7.35;3.63;;;22.70;99.90;;;;;;5069788;28;20347;-91
2022/07/04 07:55:34;;;;;;;9.00;3.65;;;23.10;99.90;;;;;;5035102;28;20058;-89
2022/07/04 07:58:01;;;;;;;11.00;3.72;;;23.60;99.90;;;;;;5050921;28;20040;-86
2022/07/04 08:00:26;;;;;;;7.25;3.08;;;24.10;99.90;;;;;;5063920;28;20101;-90
2022/07/04 08:05:38;;;;;;;9.23;2.67;;;24.20;99.90;;;;;;5040130;28;20044;-90
2022/07/04 08:08:04;;;;;;;6.32;2.88;;;25.00;99.90;;;;;;5056732;28;20473;-89
2022/07/04 08:10:30;;;;;;;7.03;2.80;;;24.50;99.90;;;;;;5061806;28;20066;-90
2022/07/04 08:12:56;;;;;;;7.15;2.65;;;24.60;99.90;;;;;;5060890;28;20055;-88
2022/07/04 08:15:22;;;;;;;7.95;2.75;;;24.60;99.90;;;;;;5056772;28;20108;-89
2022/07/04 08:17:47;;;;;;;7.43;2.10;;;24.80;99.90;;;;;;5049866;28;20453;-88
2022/07/04 08:20:13;;;;;;;7.18;2.55;;;24.80;99.90;;;;;;5059835;28;20113;-89
2022/07/04 08:22:38;;;;;;;9.82;2.70;;;24.30;99.90;;;;;;5058410;28;20496;-88
2022/07/04 08:25:04;;;;;;;6.88;2.50;;;24.40;99.90;;;;;;5060421;28;20037;-86
2022/07/04 08:27:30;;;;;;;6.25;2.50;;;24.50;99.90;;;;;;5051185;28;20119;-88
2022/07/04 08:29:55;;;;;;;8.18;2.50;;;25.60;99.90;;;;;;5055202;28;20049;-86
2022/07/04 08:32:21;;;;;;;8.15;2.40;;;25.30;99.90;;;;;;5030816;28;20049;-87
2022/07/04 08:34:47;;;;;;;8.88;2.35;;;25.80;99.90;;;;;;5036794;28;20406;-87
2022/07/04 08:37:13;;;;;;;6.32;2.17;;;26.00;99.90;;;;;;5040228;28;20041;-87
2022/07/04 08:39:38;;;;;;;3.83;1.88;;;25.40;99.90;;;;;;5029075;28;20049;-86
2022/07/04 08:42:10;;;;;;;5.57;1.73;;;24.90;99.90;;;;;;5029833;28;20609;-86
2022/07/04 08:44:38;;;;;;;5.03;1.40;;;24.40;99.90;;;;;;5012509;28;20056;-87
2022/07/04 08:47:04;;;;;;;5.97;1.90;;;24.70;99.90;;;;;;5006282;28;20417;-88
2022/07/04 08:49:31;;;;;;;6.53;2.28;;;24.20;99.90;;;;;;5021765;28;20048;-88
2022/07/04 08:52:04;;;;;;;5.10;1.90;;;23.80;99.90;;;;;;5022842;28;20053;-87
2022/07/04 08:59:59;;;;;;;8.48;2.22;;;23.90;99.90;;;;;;5017461;28;20181;-88
2022/07/04 09:02:27;;;;;;;5.30;1.80;;;23.30;99.90;;;;;;5034935;28;20143;-87
2022/07/04 09:04:52;;;;;;;4.57;1.90;;;24.00;99.90;;;;;;5023002;28;20053;-85
2022/07/04 09:07:18;;;;;;;3.65;1.83;;;24.20;99.90;;;;;;5044565;28;20266;-86
2022/07/04 09:09:43;;;;;;;5.65;1.80;;;24.80;99.90;;;;;;5050150;28;20202;-87
2022/07/04 09:12:10;;;;;;;5.13;1.63;;;24.60;99.90;;;;;;5032466;28;20499;-86
2022/07/04 09:14:35;;;;;;;5.00;1.77;;;24.30;99.90;;;;;;5048764;28;20138;-86
2022/07/04 09:17:01;;;;;;;5.78;1.90;;;24.30;99.90;;;;;;5049197;28;20081;-86
2022/07/04 09:19:27;;;;;;;2.45;1.40;;;23.90;99.90;;;;;;5048761;28;20048;-87
2022/07/04 09:21:52;;;;;;;4.10;1.60;;;23.10;99.90;;;;;;5049347;28;20428;-85
2022/07/04 09:24:43;;;;;;;5.93;1.60;;;23.10;99.90;;;;;;5050397;28;20084;-84
2022/07/04 09:27:09;;;;;;;4.15;2.15;;;22.80;99.90;;;;;;5049649;28;20132;-85
2022/07/04 09:29:37;;;;;;;6.00;2.00;;;22.20;99.90;;;;;;5049405;28;20183;-84
2022/07/04 09:32:03;;;;;;;4.20;1.50;;;21.80;99.90;;;;;;5032527;28;20057;-86
2022/07/04 09:34:29;;;;;;;6.10;2.25;;;21.70;99.90;;;;;;5047931;28;20057;-87
2022/07/04 09:36:55;;;;;;;3.80;1.65;;;21.40;99.90;;;;;;5040882;28;20045;-86
2022/07/04 09:39:21;;;;;;;4.07;1.63;;;22.40;99.90;;;;;;5021320;28;20053;-91
2022/07/04 09:41:51;;;;;;;3.72;1.50;;;23.40;99.90;;;;;;5022819;28;20612;-90
2022/07/04 09:44:17;;;;;;;2.85;1.40;;;24.20;99.90;;;;;;4989251;28;20489;-90
2022/07/04 09:46:43;;;;;;;2.92;1.48;;;24.70;99.90;;;;;;5022593;28;20120;-90
2022/07/04 09:49:10;;;;;;;5.80;2.05;;;25.10;99.90;;;;;;5040466;28;20041;-90
2022/07/04 09:51:43;;;;;;;3.45;1.38;;;25.30;99.90;;;;;;5006175;28;20053;-93
2022/07/04 09:54:26;;;;;;;7.53;1.65;;;25.30;99.90;;;;;;5005807;28;20530;-91
2022/07/04 09:56:53;;;;;;;;;;;24.50;99.90;;;;;;5004114;28;20122;-94
2022/07/04 09:59:19;;;;;;;3.47;1.77;;;24.00;99.90;;;;;;5005891;28;20388;-90
2022/07/04 10:01:45;;;;;;;3.75;1.60;;;23.70;99.90;;;;;;5021053;28;20045;-89
2022/07/04 10:04:12;;;;;;;3.10;1.13;;;24.10;99.90;;;;;;5038515;28;20048;-88
2022/07/04 10:06:39;;;;;;;3.60;1.20;;;24.80;99.90;;;;;;5008931;28;20083;-89
2022/07/04 10:09:09;;;;;;;1.45;0.80;;;25.40;99.90;;;;;;4994210;28;20052;-88
2022/07/04 10:11:36;;;;;;;2.90;0.93;;;25.70;99.90;;;;;;5023783;28;20065;-93
2022/07/04 10:14:02;;;;;;;4.07;1.00;;;25.60;99.90;;;;;;5028562;28;20058;-88
2022/07/04 10:16:30;;;;;;;8.52;1.75;;;25.30;99.90;;;;;;5007763;28;20428;-93
2022/07/04 10:18:55;;;;;;;2.83;1.20;;;25.60;99.90;;;;;;5015981;28;20107;-91
2022/07/04 10:21:21;;;;;;;1.50;1.08;;;25.60;99.90;;;;;;5008556;28;20430;-90
2022/07/04 10:23:47;;;;;;;1.02;0.90;;;25.90;99.80;;;;;;5025311;28;20048;-89
2022/07/04 10:26:13;;;;;;;1.23;0.75;;;26.10;99.30;;;;;;5023379;28;20041;-87
2022/07/04 10:28:38;;;;;;;1.88;1.00;;;26.70;98.80;;;;;;5008520;28;20045;-88
2022/07/04 10:31:04;;;;;;;1.45;0.80;;;26.50;98.60;;;;;;5024301;28;20045;-90
2022/07/04 10:33:30;;;;;;;2.67;1.23;;;26.10;99.30;;;;;;5049568;28;20061;-92
2022/07/04 10:35:56;;;;;;;1.40;1.00;;;26.20;98.50;;;;;;5036042;28;20124;-89
2022/07/04 10:38:23;;;;;;;2.42;1.00;;;26.10;98.20;;;;;;5062111;28;20080;-89
2022/07/04 10:41:07;;;;;;;2.95;1.10;;;26.00;99.80;;;;;;5063471;28;20055;-88
2022/07/04 10:43:42;;;;;;;1.92;1.00;;;26.10;98.80;;;;;;5052444;28;20136;-88
2022/07/04 10:46:17;;;;;;;1.70;1.30;;;26.50;99.90;;;;;;5039900;28;20049;-89
2022/07/04 10:48:56;;;;;;;1.25;1.10;;;26.00;98.60;;;;;;5055406;28;20044;-89
2022/07/04 10:51:33;;;;;;;1.48;1.10;;;25.90;98.70;;;;;;5065614;28;20045;-88
2022/07/04 10:54:03;;;;;;;2.65;1.00;;;25.50;98.80;;;;;;5033009;28;20064;-90
2022/07/04 10:56:28;;;;;;;1.40;1.00;;;25.50;99.10;;;;;;5049741;28;20075;-89
2022/07/04 10:58:55;;;;;;;3.00;1.02;;;25.50;99.40;;;;;;5053787;28;20051;-83
2022/07/04 11:01:20;;;;;;;2.53;1.30;;;25.80;99.10;;;;;;5060732;28;20063;-86
2022/07/04 11:03:47;;;;;;;3.65;1.50;;;25.90;99.10;;;;;;5052370;28;20041;-90
2022/07/04 11:06:43;;;;;;;2.90;1.10;;;25.80;99.70;;;;;;5034484;28;20089;-84
2022/07/04 11:09:24;;;;;;;2.78;1.10;;;24.60;99.70;;;;;;5051577;28;20492;-86
2022/07/04 11:11:56;;;;;;;1.60;1.00;;;24.40;99.90;;;;;;5048205;28;20048;-84
2022/07/04 11:14:45;;;;;;;1.15;1.00;;;24.60;99.90;;;;;;5033403;28;20060;-85
2022/07/04 11:17:34;;;;;;;1.63;1.52;;;25.00;99.90;;;;;;5048435;28;20049;-86
2022/07/04 11:20:00;;;;;;;2.30;1.00;;;25.50;99.90;;;;;;5035408;28;20087;-85
2022/07/04 11:22:26;;;;;;;3.65;1.55;;;26.10;99.90;;;;;;5035845;28;20057;-84
2022/07/04 11:24:52;;;;;;;2.03;1.27;;;25.90;99.90;;;;;;5060644;28;20036;-87
2022/07/04 11:27:17;;;;;;;5.50;1.92;;;24.80;99.90;;;;;;5054471;28;20047;-85
2022/07/04 11:29:51;;;;;;;1.70;1.27;;;24.00;99.90;;;;;;5034845;28;20477;-85
2022/07/04 11:32:16;;;;;;;1.77;1.20;;;23.30;99.90;;;;;;5034072;28;20067;-85
2022/07/04 11:34:42;;;;;;;5.43;1.40;;;23.60;99.90;;;;;;5060316;28;20372;-89
2022/07/04 11:37:08;;;;;;;2.33;1.20;;;23.70;99.90;;;;;;5034566;28;20036;-84
2022/07/04 11:39:33;;;;;;;1.90;1.05;;;24.00;99.90;;;;;;5059568;28;20040;-85
2022/07/04 11:47:24;;;;;;;2.97;1.30;;;24.10;99.90;;;;;;5038100;28;20078;-85
2022/07/04 11:49:56;;;;;;;2.25;1.10;;;24.20;99.90;;;;;;5049157;28;20447;-85
2022/07/04 11:52:26;;;;;;;3.67;1.20;;;24.20;99.90;;;;;;5029348;28;20106;-86
2022/07/04 11:54:52;;;;;;;2.25;1.30;;;23.60;99.90;;;;;;5019652;28;20064;-85
2022/07/04 11:57:20;;;;;;;2.88;1.70;;;24.00;99.90;;;;;;5020509;28;20430;-85
2022/07/04 11:59:57;;;;;;;1.80;1.10;;;24.00;99.90;;;;;;5070985;28;20052;-84
2022/07/04 12:02:22;;;;;;;4.10;1.33;;;24.10;99.90;;;;;;5053667;28;20515;-84
2022/07/04 12:04:48;;;;;;;2.75;1.17;;;24.10;99.90;;;;;;5071335;28;20036;-84
2022/07/04 12:07:15;;;;;;;2.65;1.10;;;23.90;99.90;;;;;;5071442;28;20048;-86
2022/07/04 12:09:42;;;;;;;3.10;1.10;;;23.40;99.90;;;;;;5053509;28;20403;-84
2022/07/04 12:12:08;;;;;;;4.10;1.10;;;23.70;99.90;;;;;;5036727;28;20062;-85
2022/07/04 12:14:34;;;;;;;3.28;1.30;;;23.80;99.90;;;;;;5053055;28;20127;-85
2022/07/04 12:17:19;;;;;;;1.45;1.10;;;24.10;99.90;;;;;;5020101;28;20135;-84
2022/07/04 12:19:52;;;;;;;1.98;1.05;;;24.10;99.90;;;;;;5071092;28;20059;-84
2022/07/04 12:22:32;;;;;;;2.95;1.33;;;24.50;99.90;;;;;;5071226;28;20057;-85
2022/07/04 12:24:58;;;;;;;1.23;1.10;;;24.70;99.90;;;;;;5070421;28;20059;-86
2022/07/04 12:27:24;;;;;;;2.33;1.00;;;24.60;99.90;;;;;;5036407;28;20048;-85
2022/07/04 12:29:51;;;;;;;8.25;1.98;;;24.60;99.80;;;;;;5070657;28;20044;-85
2022/07/04 12:32:17;;;;;;;4.88;1.10;;;23.80;99.90;;;;;;5070698;28;20060;-85
2022/07/04 12:34:43;;;;;;;2.45;1.00;;;24.20;99.90;;;;;;5053071;28;20067;-85
2022/07/04 12:37:10;;;;;;;2.55;1.38;;;24.40;99.90;;;;;;5041860;28;20052;-84
2022/07/04 12:39:37;;;;;;;3.63;1.27;;;23.90;99.90;;;;;;5016527;28;20485;-85
2022/07/04 12:42:07;;;;;;;4.50;1.40;;;23.80;99.90;;;;;;5032769;28;20115;-85
2022/07/04 12:44:33;;;;;;;1.85;1.20;;;23.70;99.90;;;;;;5016673;28;20500;-84
2022/07/04 12:46:59;;;;;;;2.53;1.30;;;24.90;99.90;;;;;;5050494;28;20075;-85
2022/07/04 12:49:25;;;;;;;2.17;1.13;;;24.10;99.90;;;;;;5050759;28;20515;-86
2022/07/04 12:51:51;;;;;;;2.17;1.00;;;23.90;99.90;;;;;;5033168;28;20075;-85
2022/07/04 12:54:16;;;;;;;3.72;1.30;;;23.90;99.90;;;;;;5032602;28;20041;-85
2022/07/04 12:56:44;;;;;;;3.63;1.10;;;23.60;99.90;;;;;;5016660;28;20049;-84
2022/07/04 12:59:19;;;;;;;2.40;1.00;;;23.60;99.90;;;;;;5050109;28;20056;-84
2022/07/04 13:01:45;;;;;;;1.90;1.08;;;23.60;99.90;;;;;;5020593;28;20117;-85
2022/07/04 13:04:11;;;;;;;2.75;1.35;;;23.20;99.90;;;;;;5051991;28;20476;-84